Terminal Aerodrome Forecast
Issued by NWS

Home | Current Version | Previous Version | Text Only | Print | Product List | Glossary On
Versions: 1 2 3 4 5 6 7 8 9 10 11 12 13 14 15 16 17 18 19 20
236
FTUS42 KTBW 052351
TAFPGD
TAF
KPGD 052351Z 0600/0624 03009KT P6SM SKC
     FM060500 03009KT P6SM SCT035
     FM060800 03008KT P6SM BKN035
     FM061500 36010KT P6SM VCSH BKN030 BKN100=

USA.gov is the U.S. government's official web portal to all federal, state and local government web resources and services.